Time;durP1;ratioP1;P1;durP2;ratioP2;P2;SDS_P1;SDS_P2;PMS_P1;PMS_P2;Temp;Humidity;BMP_temperature;BMP_pressure;BME280_temperature;BME280_humidity;BME280_pressure;Samples;Min_cycle;Max_cycle;Signal;HPM_P1;HPM_P2
2023/10/21 00:00:24;;;;;;;14.83;7.90;;;9.70;99.90;;;;;;5081588;28;20890;-61
2023/10/21 00:02:51;;;;;;;11.70;7.80;;;9.80;99.90;;;;;;5088164;28;20427;-61
2023/10/21 00:05:17;;;;;;;11.70;8.27;;;9.80;99.90;;;;;;5080392;28;20262;-60
2023/10/21 00:07:43;;;;;;;11.40;7.83;;;9.80;99.90;;;;;;5084929;28;20456;-61
2023/10/21 00:10:08;;;;;;;12.57;7.97;;;9.90;99.90;;;;;;5083332;28;21320;-60
2023/10/21 00:12:35;;;;;;;11.77;8.50;;;9.90;99.90;;;;;;5083539;28;20173;-62
2023/10/21 00:15:04;;;;;;;11.93;8.30;;;10.00;99.90;;;;;;5079975;28;20261;-61
2023/10/21 00:17:29;;;;;;;11.77;8.13;;;10.00;99.90;;;;;;5084830;28;20450;-61
2023/10/21 00:19:55;;;;;;;13.17;8.40;;;10.10;99.90;;;;;;5083049;28;20436;-61
2023/10/21 00:22:21;;;;;;;11.10;8.63;;;10.10;99.90;;;;;;5085274;28;20188;-61
2023/10/21 00:24:46;;;;;;;19.53;8.00;;;10.10;99.90;;;;;;5082935;28;20204;-60
2023/10/21 00:27:12;;;;;;;10.53;7.67;;;10.10;99.90;;;;;;5083509;28;20182;-60
2023/10/21 00:29:37;;;;;;;11.20;7.40;;;10.10;99.90;;;;;;5083493;28;20306;-61
2023/10/21 00:32:04;;;;;;;14.47;9.77;;;10.10;99.90;;;;;;5082026;28;20194;-60
2023/10/21 00:34:30;;;;;;;14.10;10.20;;;10.00;99.90;;;;;;5085975;28;20182;-62
2023/10/21 00:36:56;;;;;;;8.13;6.00;;;10.00;99.90;;;;;;5085176;28;20840;-61
2023/10/21 00:39:22;;;;;;;12.30;6.50;;;10.00;99.90;;;;;;5080308;28;20455;-61
2023/10/21 00:41:48;;;;;;;8.30;6.00;;;9.90;99.90;;;;;;5083749;28;20182;-60
2023/10/21 00:44:13;;;;;;;9.20;6.10;;;9.80;99.90;;;;;;5082652;28;20423;-61
2023/10/21 00:46:40;;;;;;;7.57;5.40;;;9.70;99.90;;;;;;5081544;28;20179;-61
2023/10/21 00:49:06;;;;;;;9.53;6.30;;;9.60;99.90;;;;;;5083044;28;20193;-60
2023/10/21 00:51:33;;;;;;;7.30;5.87;;;9.60;99.90;;;;;;5081613;28;20520;-62
2023/10/21 00:54:01;;;;;;;9.30;6.87;;;9.50;99.90;;;;;;5083500;28;20193;-60
2023/10/21 00:56:27;;;;;;;7.90;6.03;;;9.50;99.90;;;;;;5084712;28;20472;-61
2023/10/21 00:58:53;;;;;;;65.17;7.90;;;9.40;99.90;;;;;;5082448;28;20444;-61
2023/10/21 01:01:19;;;;;;;7.57;5.13;;;9.40;99.90;;;;;;5082458;28;20965;-60
2023/10/21 01:03:45;;;;;;;9.70;6.00;;;9.30;99.90;;;;;;5079792;28;20512;-60
2023/10/21 01:06:10;;;;;;;9.80;6.10;;;9.30;99.90;;;;;;5081971;28;20687;-61
2023/10/21 01:08:43;;;;;;;11.27;5.63;;;9.20;99.90;;;;;;5082319;28;20455;-62
2023/10/21 01:11:09;;;;;;;7.70;5.40;;;9.20;99.90;;;;;;5083015;28;20272;-61
2023/10/21 01:13:35;;;;;;;9.30;5.70;;;9.20;99.90;;;;;;5079953;28;20462;-60
2023/10/21 01:16:00;;;;;;;25.90;6.83;;;9.20;99.90;;;;;;5085154;28;20443;-60
2023/10/21 01:18:30;;;;;;;7.20;5.60;;;9.20;99.90;;;;;;5083097;28;20237;-60
2023/10/21 01:20:56;;;;;;;9.20;6.30;;;9.10;99.90;;;;;;5085700;28;20180;-61
2023/10/21 01:23:21;;;;;;;9.33;6.40;;;9.10;99.90;;;;;;5086926;28;21055;-60
2023/10/21 01:25:47;;;;;;;10.60;7.00;;;9.10;99.90;;;;;;5077599;28;20521;-61
2023/10/21 01:28:13;;;;;;;9.77;7.20;;;9.10;99.90;;;;;;5086902;28;20232;-61
2023/10/21 01:30:39;;;;;;;11.93;7.00;;;9.10;99.90;;;;;;5082895;28;20186;-61
2023/10/21 01:33:05;;;;;;;9.10;6.90;;;9.10;99.90;;;;;;5090046;28;20477;-62
2023/10/21 01:35:30;;;;;;;10.17;7.27;;;9.10;99.90;;;;;;5085061;28;20190;-61
2023/10/21 01:37:56;;;;;;;10.50;7.10;;;9.20;99.90;;;;;;5075571;28;20198;-60
2023/10/21 01:40:21;;;;;;;11.43;6.80;;;9.20;99.90;;;;;;5083042;28;20647;-60
2023/10/21 01:42:47;;;;;;;9.57;6.57;;;9.20;99.90;;;;;;5086196;28;20265;-62
2023/10/21 01:45:14;;;;;;;10.70;7.47;;;9.20;99.90;;;;;;5086200;28;20209;-60
2023/10/21 01:47:40;;;;;;;12.70;7.40;;;9.20;99.90;;;;;;5078480;28;21033;-61
2023/10/21 01:50:09;;;;;;;12.53;7.37;;;9.10;99.90;;;;;;5084457;28;20502;-61
2023/10/21 01:52:36;;;;;;;9.50;6.67;;;9.10;99.90;;;;;;5085843;28;20178;-61
2023/10/21 01:55:06;;;;;;;11.27;6.73;;;9.10;99.90;;;;;;5082625;28;21001;-60
2023/10/21 01:57:32;;;;;;;47.27;7.57;;;9.10;99.90;;;;;;5082185;28;20432;-61
2023/10/21 01:59:59;;;;;;;15.70;6.50;;;9.00;99.90;;;;;;5076177;28;20754;-61
2023/10/21 02:02:25;;;;;;;10.43;6.77;;;9.00;99.90;;;;;;5083135;28;20442;-60
2023/10/21 02:04:51;;;;;;;28.40;7.80;;;9.00;99.90;;;;;;5083254;28;20879;-60
2023/10/21 02:07:17;;;;;;;8.40;6.10;;;8.90;99.90;;;;;;5087367;28;20221;-60
2023/10/21 02:09:43;;;;;;;8.40;5.70;;;8.90;99.90;;;;;;5078629;28;22493;-60
2023/10/21 02:12:09;;;;;;;9.60;6.77;;;8.80;99.90;;;;;;5079820;28;20263;-60
2023/10/21 02:14:35;;;;;;;8.60;5.97;;;8.90;99.90;;;;;;5086929;28;20281;-61
2023/10/21 02:17:00;;;;;;;9.07;6.27;;;8.90;99.90;;;;;;5082675;28;20528;-60
2023/10/21 02:19:26;;;;;;;9.83;6.97;;;8.80;99.90;;;;;;5086160;28;20193;-60
2023/10/21 02:21:52;;;;;;;10.00;7.07;;;8.90;99.90;;;;;;5085278;28;20177;-60
2023/10/21 02:24:17;;;;;;;10.10;6.90;;;8.90;99.90;;;;;;5081206;28;20173;-59
2023/10/21 02:26:43;;;;;;;10.43;7.80;;;8.90;99.90;;;;;;5085694;28;20184;-60
2023/10/21 02:29:09;;;;;;;9.93;7.40;;;8.90;99.90;;;;;;5083953;28;20208;-60
2023/10/21 02:31:34;;;;;;;12.27;8.17;;;8.90;99.90;;;;;;5083250;28;20852;-60
2023/10/21 02:34:00;;;;;;;10.00;7.07;;;8.90;99.90;;;;;;5087876;28;20172;-60
2023/10/21 02:36:26;;;;;;;8.70;5.93;;;9.00;99.90;;;;;;5081363;28;20475;-62
2023/10/21 02:38:52;;;;;;;9.70;5.17;;;9.00;99.90;;;;;;5084942;28;20622;-60
2023/10/21 02:41:18;;;;;;;11.73;5.93;;;9.10;99.90;;;;;;5084547;28;20526;-60
2023/10/21 02:43:43;;;;;;;10.37;5.73;;;9.20;99.90;;;;;;5089211;28;20276;-61
2023/10/21 02:46:11;;;;;;;7.97;5.10;;;9.30;99.90;;;;;;5088914;28;20467;-61
2023/10/21 02:48:37;;;;;;;5.90;4.40;;;9.30;99.90;;;;;;5083414;28;20235;-60
2023/10/21 02:51:10;;;;;;;6.30;3.40;;;9.40;99.90;;;;;;5087186;28;20455;-60
2023/10/21 02:53:36;;;;;;;6.93;4.33;;;9.40;99.90;;;;;;5086159;28;22471;-61
2023/10/21 02:56:05;;;;;;;7.20;3.90;;;9.50;99.90;;;;;;5084794;28;20438;-60
2023/10/21 02:58:31;;;;;;;9.87;4.27;;;9.50;99.90;;;;;;5084038;28;21118;-60
2023/10/21 03:00:56;;;;;;;5.07;4.33;;;9.60;99.90;;;;;;5084937;28;20533;-61
2023/10/21 03:03:22;;;;;;;5.03;4.13;;;9.60;99.90;;;;;;5091833;28;20427;-62
2023/10/21 03:05:48;;;;;;;4.10;3.70;;;9.60;99.90;;;;;;5080555;28;20208;-60
2023/10/21 03:08:14;;;;;;;9.20;3.80;;;9.70;99.90;;;;;;5079652;28;20714;-60
2023/10/21 03:10:40;;;;;;;5.43;4.10;;;9.70;99.90;;;;;;5081293;28;20440;-62
2023/10/21 03:13:06;;;;;;;4.20;3.80;;;9.70;99.90;;;;;;5090201;28;20174;-61
2023/10/21 03:15:33;;;;;;;6.53;4.50;;;9.70;99.90;;;;;;5089274;28;20694;-60
2023/10/21 03:17:59;;;;;;;5.07;3.13;;;9.70;99.90;;;;;;5090178;28;20450;-62
2023/10/21 03:20:25;;;;;;;2.97;2.67;;;9.80;99.90;;;;;;5086664;28;20443;-61
2023/10/21 03:22:50;;;;;;;3.33;2.30;;;9.80;99.90;;;;;;5085094;28;20910;-61
2023/10/21 03:25:17;;;;;;;3.10;2.30;;;9.90;99.90;;;;;;5085254;28;20566;-60
2023/10/21 03:27:43;;;;;;;3.77;2.83;;;9.90;99.90;;;;;;5087285;28;20185;-61
2023/10/21 03:30:09;;;;;;;8.23;2.97;;;9.90;99.90;;;;;;5085292;28;20472;-61
2023/10/21 03:32:34;;;;;;;2.87;2.57;;;10.00;99.90;;;;;;5089415;28;20173;-61
2023/10/21 03:35:00;;;;;;;3.60;2.53;;;9.90;99.90;;;;;;5082412;28;20641;-60
2023/10/21 03:37:25;;;;;;;5.37;2.50;;;10.00;99.90;;;;;;5090856;28;20174;-60
2023/10/21 03:39:51;;;;;;;2.43;2.20;;;10.00;99.90;;;;;;5079869;28;20216;-61
2023/10/21 03:42:17;;;;;;;2.40;2.20;;;10.00;99.90;;;;;;5088581;28;20174;-59
2023/10/21 03:44:42;;;;;;;3.67;2.20;;;10.00;99.90;;;;;;5079303;28;20200;-60
2023/10/21 03:47:08;;;;;;;6.50;3.23;;;10.00;99.90;;;;;;5077932;28;20257;-63
2023/10/21 03:49:33;;;;;;;3.63;2.40;;;10.00;99.90;;;;;;5089379;28;20551;-60
2023/10/21 03:51:59;;;;;;;3.47;2.40;;;10.00;99.90;;;;;;5085786;28;20176;-61
2023/10/21 03:54:24;;;;;;;3.33;2.33;;;10.10;99.90;;;;;;5082100;28;20220;-60
2023/10/21 03:56:51;;;;;;;2.03;1.83;;;10.10;99.90;;;;;;5085981;28;20170;-61
2023/10/21 03:59:17;;;;;;;1.73;1.63;;;10.10;99.90;;;;;;5086301;28;20190;-61
2023/10/21 04:01:42;;;;;;;2.60;2.00;;;10.10;99.90;;;;;;5085247;28;20419;-60
2023/10/21 04:04:08;;;;;;;2.67;1.60;;;10.20;99.90;;;;;;5086037;28;20511;-61
2023/10/21 04:06:34;;;;;;;5.53;1.60;;;10.20;99.90;;;;;;5085558;28;20714;-60
2023/10/21 04:09:00;;;;;;;1.70;1.40;;;10.30;99.90;;;;;;5080153;28;20451;-61
2023/10/21 04:11:26;;;;;;;4.93;1.40;;;10.30;99.90;;;;;;5087364;28;20174;-62
2023/10/21 04:13:51;;;;;;;1.60;1.50;;;10.30;99.90;;;;;;5085800;28;20431;-60
2023/10/21 04:16:17;;;;;;;1.37;1.27;;;10.40;99.90;;;;;;5088511;28;20189;-59
2023/10/21 04:18:43;;;;;;;2.33;1.50;;;10.40;99.90;;;;;;5087832;28;20193;-61
2023/10/21 04:21:08;;;;;;;3.17;1.47;;;10.40;99.90;;;;;;5085142;28;20205;-60
2023/10/21 04:23:34;;;;;;;1.97;1.40;;;10.50;99.90;;;;;;5078963;28;20265;-60
2023/10/21 04:25:59;;;;;;;1.60;1.50;;;10.50;99.90;;;;;;5075839;28;20582;-60
2023/10/21 04:28:25;;;;;;;4.43;1.90;;;10.50;99.90;;;;;;5083120;28;20193;-62
2023/10/21 04:30:51;;;;;;;3.90;1.40;;;10.50;99.90;;;;;;5087131;28;20174;-61
2023/10/21 04:33:17;;;;;;;1.43;1.33;;;10.50;99.90;;;;;;5087830;28;20185;-60
2023/10/21 04:35:42;;;;;;;1.50;1.40;;;10.50;99.90;;;;;;5087631;28;20260;-60
2023/10/21 04:38:09;;;;;;;1.60;1.40;;;10.60;99.90;;;;;;5083907;28;20200;-60
2023/10/21 04:40:35;;;;;;;1.40;1.30;;;10.60;99.90;;;;;;5082138;28;20297;-58
2023/10/21 04:43:01;;;;;;;1.37;1.23;;;10.60;99.90;;;;;;5086986;28;21126;-60
2023/10/21 04:45:26;;;;;;;2.00;1.40;;;10.60;99.90;;;;;;5087525;28;20194;-60
2023/10/21 04:47:52;;;;;;;3.13;1.47;;;10.60;99.90;;;;;;5086565;28;20196;-60
2023/10/21 04:50:18;;;;;;;2.43;1.20;;;10.60;99.90;;;;;;5085902;28;20597;-59
2023/10/21 04:52:43;;;;;;;1.30;1.20;;;10.60;99.90;;;;;;5078896;28;20170;-60
2023/10/21 04:55:09;;;;;;;0.90;0.90;;;10.60;99.90;;;;;;5087337;28;20177;-60
2023/10/21 04:57:35;;;;;;;3.93;1.20;;;10.60;99.90;;;;;;5081674;28;20182;-60
2023/10/21 05:00:01;;;;;;;0.80;0.80;;;10.60;99.90;;;;;;5083434;28;20197;-60
2023/10/21 05:02:28;;;;;;;1.00;0.90;;;10.70;99.90;;;;;;5089221;28;20232;-60
2023/10/21 05:04:53;;;;;;;1.20;0.90;;;10.70;99.90;;;;;;5085949;28;20538;-60
2023/10/21 05:07:19;;;;;;;0.80;0.80;;;10.70;99.90;;;;;;5083700;28;20527;-60
2023/10/21 05:09:45;;;;;;;0.80;0.80;;;10.70;99.90;;;;;;5082129;28;20555;-60
2023/10/21 05:12:11;;;;;;;0.90;0.90;;;10.80;99.90;;;;;;5086756;28;20240;-60
2023/10/21 05:14:37;;;;;;;0.97;0.97;;;10.80;99.90;;;;;;5080484;28;20184;-60
2023/10/21 05:17:03;;;;;;;1.57;0.90;;;10.80;99.90;;;;;;5084679;28;20246;-60
2023/10/21 05:19:29;;;;;;;0.97;0.87;;;10.80;99.90;;;;;;5087709;28;20200;-60
2023/10/21 05:21:55;;;;;;;1.00;0.90;;;10.80;99.90;;;;;;5084448;28;20983;-61
2023/10/21 05:24:20;;;;;;;0.80;0.80;;;10.80;99.90;;;;;;5084256;28;20534;-60
2023/10/21 05:26:46;;;;;;;0.90;0.90;;;10.80;99.90;;;;;;5086205;28;20563;-60
2023/10/21 05:29:12;;;;;;;0.70;0.70;;;10.80;99.90;;;;;;5080878;28;20193;-60
2023/10/21 05:31:38;;;;;;;0.90;0.90;;;10.80;99.90;;;;;;5079653;28;20174;-60
2023/10/21 05:34:03;;;;;;;2.70;0.80;;;10.80;99.90;;;;;;5078660;28;20704;-59
2023/10/21 05:36:29;;;;;;;0.80;0.80;;;10.80;99.90;;;;;;5080544;28;20439;-60
2023/10/21 05:38:55;;;;;;;1.03;0.97;;;10.80;99.90;;;;;;5082416;28;20197;-60
2023/10/21 05:41:21;;;;;;;1.20;1.10;;;10.80;99.90;;;;;;5084410;28;20457;-60
2023/10/21 05:43:47;;;;;;;1.47;1.30;;;10.70;99.90;;;;;;5080604;28;20178;-64
2023/10/21 05:46:13;;;;;;;4.17;1.23;;;10.70;99.90;;;;;;5080062;28;20462;-60
2023/10/21 05:48:38;;;;;;;1.47;1.37;;;10.60;99.90;;;;;;5081803;28;20194;-60
2023/10/21 05:51:04;;;;;;;2.53;2.33;;;10.70;99.90;;;;;;5081516;28;20264;-60
2023/10/21 05:53:30;;;;;;;2.20;2.00;;;10.60;99.90;;;;;;5084415;28;20264;-60
2023/10/21 05:55:56;;;;;;;1.80;1.63;;;10.60;99.90;;;;;;5085470;28;20222;-61
2023/10/21 05:58:23;;;;;;;3.40;2.00;;;10.50;99.90;;;;;;5081332;28;20276;-60
2023/10/21 06:00:49;;;;;;;2.83;1.87;;;10.50;99.90;;;;;;5083818;28;20872;-61
2023/10/21 06:03:15;;;;;;;2.23;2.03;;;10.60;99.90;;;;;;5083610;28;20460;-60
2023/10/21 06:05:41;;;;;;;2.33;2.13;;;10.50;99.90;;;;;;5082452;28;20539;-60
2023/10/21 06:08:07;;;;;;;2.57;1.73;;;10.50;99.90;;;;;;5084463;28;20296;-60
2023/10/21 06:10:34;;;;;;;2.60;1.90;;;10.40;99.90;;;;;;5087509;28;20802;-60
2023/10/21 06:13:00;;;;;;;2.70;1.50;;;10.40;99.90;;;;;;5081842;28;20483;-61
2023/10/21 06:15:26;;;;;;;4.63;2.27;;;10.30;99.90;;;;;;5083323;28;20436;-60
2023/10/21 06:17:51;;;;;;;1.77;1.67;;;10.30;99.90;;;;;;5085301;28;20456;-60
2023/10/21 06:20:17;;;;;;;3.60;2.10;;;10.20;99.90;;;;;;5076870;28;20189;-60
2023/10/21 06:22:43;;;;;;;2.03;1.70;;;10.20;99.90;;;;;;5077470;28;20182;-58
2023/10/21 06:25:10;;;;;;;1.60;1.40;;;10.10;99.90;;;;;;5084961;28;20600;-58
2023/10/21 06:27:36;;;;;;;1.40;1.30;;;10.10;99.90;;;;;;5083106;28;20261;-60
2023/10/21 06:30:03;;;;;;;5.67;1.93;;;10.10;99.90;;;;;;5083205;28;20428;-56
2023/10/21 06:32:29;;;;;;;3.87;2.67;;;10.10;99.90;;;;;;5081914;28;20428;-58
2023/10/21 06:34:55;;;;;;;2.50;2.20;;;10.10;99.90;;;;;;5080430;28;20468;-60
2023/10/21 06:37:21;;;;;;;5.20;2.10;;;10.00;99.90;;;;;;5079059;28;20471;-61
2023/10/21 06:39:47;;;;;;;3.33;2.67;;;9.90;99.90;;;;;;5075993;28;20630;-60
2023/10/21 06:42:13;;;;;;;3.00;2.80;;;9.90;99.90;;;;;;5079855;28;20182;-61
2023/10/21 06:44:39;;;;;;;3.10;2.80;;;9.90;99.90;;;;;;5082520;28;20490;-62
2023/10/21 06:47:04;;;;;;;4.47;3.80;;;9.80;99.90;;;;;;5084760;28;20451;-60
2023/10/21 06:49:30;;;;;;;4.00;3.07;;;9.80;99.90;;;;;;5077977;28;20193;-61
2023/10/21 06:51:57;;;;;;;4.40;3.43;;;9.80;99.90;;;;;;5080304;28;20170;-60
2023/10/21 06:54:23;;;;;;;4.40;3.97;;;9.80;99.90;;;;;;5081545;28;20170;-60
2023/10/21 06:56:49;;;;;;;5.00;4.13;;;9.70;99.90;;;;;;5078295;28;20436;-60
2023/10/21 06:59:15;;;;;;;4.67;4.10;;;9.70;99.90;;;;;;5082433;28;21159;-60
2023/10/21 07:01:41;;;;;;;4.90;3.70;;;9.70;99.90;;;;;;5076339;28;20198;-60
2023/10/21 07:04:09;;;;;;;3.97;3.50;;;9.80;99.90;;;;;;5083496;28;20673;-60
2023/10/21 07:06:39;;;;;;;2.40;2.20;;;9.80;99.90;;;;;;5080500;28;20209;-59
2023/10/21 07:09:06;;;;;;;3.50;2.10;;;9.80;99.90;;;;;;5081067;28;20450;-60
2023/10/21 07:11:32;;;;;;;3.30;3.00;;;9.80;99.90;;;;;;5078844;28;20436;-59
2023/10/21 07:13:58;;;;;;;6.80;4.97;;;9.90;99.90;;;;;;5077410;28;20474;-60
2023/10/21 07:16:24;;;;;;;3.83;3.47;;;10.00;99.90;;;;;;5074839;28;20465;-60
2023/10/21 07:18:49;;;;;;;7.70;3.70;;;10.10;99.90;;;;;;5082213;28;20233;-60
2023/10/21 07:21:16;;;;;;;5.27;3.70;;;10.10;99.90;;;;;;5081568;28;20507;-60
2023/10/21 07:23:42;;;;;;;6.57;4.43;;;10.20;99.90;;;;;;5083067;28;20174;-59
2023/10/21 07:26:07;;;;;;;11.53;7.60;;;10.30;99.90;;;;;;5080203;28;20451;-59
2023/10/21 07:28:33;;;;;;;6.80;4.70;;;10.40;99.90;;;;;;5083299;28;20210;-59
2023/10/21 07:31:00;;;;;;;6.90;4.40;;;10.40;99.90;;;;;;5083175;28;20306;-60
2023/10/21 07:33:26;;;;;;;2.60;2.40;;;10.50;99.90;;;;;;5077957;28;20430;-58
2023/10/21 07:35:52;;;;;;;3.00;2.57;;;10.60;99.90;;;;;;5087127;28;20803;-56
2023/10/21 07:38:19;;;;;;;3.03;2.80;;;10.60;99.90;;;;;;5084483;28;20333;-54
2023/10/21 07:40:45;;;;;;;2.73;2.50;;;10.70;99.90;;;;;;5082071;28;20861;-56
2023/10/21 07:43:11;;;;;;;2.47;2.20;;;10.70;99.90;;;;;;5079817;28;20484;-61
2023/10/21 07:45:40;;;;;;;3.50;3.20;;;10.80;99.90;;;;;;5082303;28;20236;-60
2023/10/21 07:48:06;;;;;;;8.20;6.07;;;10.90;99.90;;;;;;5082805;28;20448;-60
2023/10/21 07:50:32;;;;;;;7.33;5.53;;;10.90;99.90;;;;;;5086504;28;20771;-59
2023/10/21 07:52:58;;;;;;;7.07;5.23;;;10.90;99.90;;;;;;5075968;28;20948;-60
2023/10/21 07:55:24;;;;;;;4.40;4.00;;;11.00;99.90;;;;;;5079385;28;20186;-60
2023/10/21 07:57:49;;;;;;;5.50;4.17;;;11.00;99.90;;;;;;5074222;28;20238;-60
2023/10/21 08:00:15;;;;;;;1.90;1.80;;;11.10;99.90;;;;;;5075257;28;20201;-61
2023/10/21 08:02:41;;;;;;;2.50;1.77;;;11.10;99.90;;;;;;5082205;28;20177;-61
2023/10/21 08:05:08;;;;;;;2.43;1.40;;;11.10;99.90;;;;;;5082895;28;20205;-60
2023/10/21 08:07:34;;;;;;;2.50;1.97;;;11.20;99.90;;;;;;5098123;27;20444;-61
2023/10/21 08:09:59;;;;;;;2.27;1.70;;;11.20;99.90;;;;;;5091525;28;20419;-61
2023/10/21 08:12:25;;;;;;;3.03;1.83;;;11.20;99.90;;;;;;5076947;28;20492;-59
2023/10/21 08:14:51;;;;;;;5.13;2.00;;;11.20;99.90;;;;;;5081047;28;20192;-61
2023/10/21 08:17:17;;;;;;;3.37;1.67;;;11.20;99.90;;;;;;5080141;28;20189;-59
2023/10/21 08:19:43;;;;;;;2.50;2.00;;;11.30;99.90;;;;;;5083412;28;20703;-59
2023/10/21 08:22:10;;;;;;;5.93;1.77;;;11.30;99.90;;;;;;5080985;28;20417;-59
2023/10/21 08:24:36;;;;;;;2.23;2.00;;;11.30;99.90;;;;;;5084256;28;20802;-58
2023/10/21 08:27:04;;;;;;;1.93;1.80;;;11.30;99.90;;;;;;5082599;28;20443;-58
2023/10/21 08:29:30;;;;;;;1.70;1.60;;;11.30;99.90;;;;;;5079398;28;20463;-59
2023/10/21 08:31:55;;;;;;;5.67;2.10;;;11.40;99.90;;;;;;5083834;28;20443;-58
2023/10/21 08:34:22;;;;;;;2.40;2.20;;;11.40;99.90;;;;;;5085297;28;20175;-58
2023/10/21 08:36:47;;;;;;;2.60;2.30;;;11.40;99.90;;;;;;5080751;28;20671;-55
2023/10/21 08:39:13;;;;;;;2.33;2.07;;;11.50;99.90;;;;;;5078735;28;20508;-57
2023/10/21 08:41:39;;;;;;;3.23;1.83;;;11.50;99.90;;;;;;5087142;28;20174;-56
2023/10/21 08:44:07;;;;;;;1.80;1.67;;;11.60;99.90;;;;;;5076681;28;20817;-55
2023/10/21 08:46:33;;;;;;;1.97;1.60;;;11.70;99.90;;;;;;5078885;28;20447;-56
2023/10/21 08:49:03;;;;;;;3.63;2.27;;;11.70;99.90;;;;;;5079963;28;20452;-61
2023/10/21 08:51:30;;;;;;;3.53;2.73;;;11.80;99.90;;;;;;5083688;28;20428;-61
2023/10/21 08:54:03;;;;;;;2.30;2.10;;;11.90;99.90;;;;;;5082024;28;20822;-59
2023/10/21 08:56:29;;;;;;;2.37;1.73;;;11.90;99.90;;;;;;5082584;28;20432;-59
2023/10/21 08:58:59;;;;;;;2.23;1.50;;;12.00;99.90;;;;;;5083023;28;20439;-59
2023/10/21 09:01:24;;;;;;;1.70;1.60;;;12.00;99.90;;;;;;5081645;28;20424;-60
2023/10/21 09:03:50;;;;;;;1.50;1.40;;;12.10;99.90;;;;;;5085349;28;20759;-59
2023/10/21 09:06:19;;;;;;;3.10;1.40;;;12.10;99.90;;;;;;5088781;28;20189;-59
2023/10/21 09:08:50;;;;;;;1.57;1.43;;;12.10;99.90;;;;;;5075964;28;20213;-59
2023/10/21 09:11:23;;;;;;;4.23;1.20;;;12.20;99.90;;;;;;5085213;28;20403;-60
2023/10/21 09:13:52;;;;;;;2.70;1.30;;;12.30;99.90;;;;;;5084178;28;20460;-59
2023/10/21 09:16:19;;;;;;;3.80;1.60;;;12.30;99.90;;;;;;5082623;28;20558;-59
2023/10/21 09:19:01;;;;;;;3.60;1.47;;;12.40;99.90;;;;;;5078316;28;20442;-59
2023/10/21 09:21:32;;;;;;;5.83;1.20;;;12.50;99.90;;;;;;5083208;28;20564;-59
2023/10/21 09:23:59;;;;;;;5.63;1.30;;;12.60;99.90;;;;;;5085552;28;20452;-60
2023/10/21 09:26:42;;;;;;;1.77;1.37;;;12.70;99.90;;;;;;5083694;28;20554;-59
2023/10/21 09:29:13;;;;;;;9.33;1.60;;;12.70;99.90;;;;;;5082185;28;20427;-60
2023/10/21 09:31:51;;;;;;;1.57;1.20;;;12.80;99.90;;;;;;5087570;28;20436;-59
2023/10/21 09:34:24;;;;;;;2.53;1.43;;;12.80;99.90;;;;;;5090113;28;20457;-59
2023/10/21 09:36:50;;;;;;;2.73;1.40;;;12.80;99.90;;;;;;5083240;28;20431;-59
2023/10/21 09:39:16;;;;;;;2.20;1.17;;;12.80;99.90;;;;;;5085344;28;20427;-58
2023/10/21 09:41:43;;;;;;;2.33;1.27;;;12.90;99.90;;;;;;5087069;28;20264;-59
2023/10/21 09:44:10;;;;;;;1.43;1.33;;;12.90;99.90;;;;;;5084869;28;20428;-59
2023/10/21 09:46:39;;;;;;;2.53;1.07;;;12.90;99.90;;;;;;5083909;28;20451;-59
2023/10/21 09:49:06;;;;;;;2.00;1.57;;;13.00;99.90;;;;;;5082432;28;20961;-60
2023/10/21 09:51:36;;;;;;;2.40;1.20;;;13.00;99.90;;;;;;5085023;28;20438;-58
2023/10/21 09:54:10;;;;;;;4.43;1.17;;;13.10;99.90;;;;;;5084711;28;20432;-58
2023/10/21 09:56:37;;;;;;;1.90;1.20;;;13.20;99.90;;;;;;5088851;28;20419;-59
2023/10/21 09:59:05;;;;;;;1.90;1.10;;;13.30;99.90;;;;;;5088331;28;20455;-59
2023/10/21 10:01:33;;;;;;;1.43;1.00;;;13.50;99.90;;;;;;5080840;28;20855;-59
2023/10/21 10:04:00;;;;;;;1.00;0.90;;;13.80;99.90;;;;;;5081738;28;20597;-60
2023/10/21 10:06:26;;;;;;;1.60;1.30;;;14.10;99.90;;;;;;5086862;28;20463;-59
2023/10/21 10:08:52;;;;;;;1.60;1.13;;;14.40;99.90;;;;;;5087485;28;20463;-59
2023/10/21 10:11:18;;;;;;;1.10;1.00;;;14.60;99.90;;;;;;5082082;28;20176;-58
2023/10/21 10:13:48;;;;;;;3.63;1.10;;;14.80;99.90;;;;;;5084744;28;20431;-59
2023/10/21 10:16:24;;;;;;;1.10;0.90;;;14.80;99.90;;;;;;5081026;28;20440;-59
2023/10/21 10:18:50;;;;;;;1.90;1.00;;;14.70;97.70;;;;;;5083502;28;20439;-60
2023/10/21 10:21:18;;;;;;;1.83;1.10;;;14.60;98.80;;;;;;5078807;28;21023;-58
2023/10/21 10:23:59;;;;;;;2.10;0.90;;;14.50;99.90;;;;;;5076957;28;20453;-60
2023/10/21 10:26:38;;;;;;;1.57;0.90;;;14.50;98.30;;;;;;5086599;28;20460;-59
2023/10/21 10:29:25;;;;;;;1.20;1.00;;;14.40;99.90;;;;;;5078311;28;20427;-60
2023/10/21 10:32:14;;;;;;;1.07;1.00;;;14.30;99.50;;;;;;5084050;28;20419;-59
2023/10/21 10:34:53;;;;;;;1.00;0.70;;;14.20;95.30;;;;;;5083329;28;20431;-59
2023/10/21 10:37:32;;;;;;;1.37;1.00;;;14.10;97.70;;;;;;5084457;28;20432;-60
2023/10/21 10:39:58;;;;;;;1.37;1.10;;;14.20;99.90;;;;;;5077260;28;20420;-59
2023/10/21 10:42:31;;;;;;;2.60;1.00;;;14.20;99.90;;;;;;5087790;28;20480;-59
2023/10/21 10:44:56;;;;;;;2.50;0.80;;;14.30;97.10;;;;;;5083225;28;20229;-59
2023/10/21 10:47:22;;;;;;;0.80;0.80;;;14.30;97.90;;;;;;5082647;28;21021;-59
2023/10/21 10:49:59;;;;;;;1.10;0.90;;;14.30;99.10;;;;;;5078836;28;20656;-59
2023/10/21 10:52:31;;;;;;;1.17;0.90;;;14.40;99.40;;;;;;5084412;28;20834;-60
2023/10/21 10:55:08;;;;;;;1.80;0.80;;;14.60;97.70;;;;;;5078953;28;20427;-59
2023/10/21 10:57:34;;;;;;;2.20;0.80;;;14.70;93.40;;;;;;5084736;28;20511;-59
2023/10/21 11:00:00;;;;;;;1.10;0.93;;;14.90;92.50;;;;;;5085472;28;21111;-60
2023/10/21 11:02:28;;;;;;;1.10;0.80;;;15.20;90.50;;;;;;5077898;28;20917;-59
2023/10/21 11:04:59;;;;;;;3.23;1.10;;;15.50;82.70;;;;;;5086083;28;20193;-58
2023/10/21 11:07:30;;;;;;;1.57;0.83;;;15.60;80.50;;;;;;5087191;28;20451;-59
2023/10/21 11:10:00;;;;;;;1.33;0.90;;;15.70;73.50;;;;;;5086675;28;20478;-59
2023/10/21 11:12:27;;;;;;;1.00;0.90;;;15.70;73.40;;;;;;5087701;28;21436;-59
2023/10/21 11:14:53;;;;;;;2.50;0.90;;;15.60;73.00;;;;;;5091110;28;20442;-59
2023/10/21 11:17:19;;;;;;;1.00;0.80;;;15.50;77.60;;;;;;5091655;28;20450;-58
2023/10/21 11:19:44;;;;;;;1.03;0.80;;;15.40;73.40;;;;;;5086114;28;20311;-59
2023/10/21 11:22:26;;;;;;;0.87;0.70;;;15.30;75.30;;;;;;5085408;28;20713;-59
2023/10/21 11:24:53;;;;;;;3.00;1.00;;;15.20;78.30;;;;;;5093400;28;20234;-60
2023/10/21 11:27:19;;;;;;;3.43;0.93;;;15.30;82.00;;;;;;5089038;28;20454;-60
2023/10/21 11:29:45;;;;;;;1.67;0.90;;;15.30;79.40;;;;;;5085598;28;21121;-60
2023/10/21 11:32:12;;;;;;;1.53;0.80;;;15.20;73.30;;;;;;5089925;28;20418;-58
2023/10/21 11:34:38;;;;;;;0.73;0.73;;;15.20;72.20;;;;;;5089755;28;20415;-59
2023/10/21 11:37:07;;;;;;;0.70;0.70;;;15.10;74.10;;;;;;5080407;28;20432;-59
2023/10/21 11:39:32;;;;;;;1.83;0.90;;;15.10;77.80;;;;;;5089079;28;20196;-59
2023/10/21 11:41:59;;;;;;;1.93;0.83;;;15.20;69.60;;;;;;5088978;28;20407;-59
2023/10/21 11:44:31;;;;;;;1.83;0.73;;;15.40;67.30;;;;;;5084344;28;20165;-59
2023/10/21 11:47:09;;;;;;;1.27;0.80;;;15.60;64.80;;;;;;5080339;28;20416;-59
2023/10/21 11:49:39;;;;;;;1.10;0.80;;;15.90;64.20;;;;;;5093791;28;20484;-60
2023/10/21 11:52:09;;;;;;;1.50;0.90;;;15.90;64.70;;;;;;5086359;28;20420;-60
2023/10/21 12:16:16;;;;;;;1.57;0.90;;;15.30;69.30;;;;;;5084940;28;20435;-59
2023/10/21 12:29:43;;;;;;;0.83;0.80;;;14.70;72.70;;;;;;5086233;28;20484;-59
2023/10/21 12:31:53;;;;;;;1.30;0.77;;;14.60;70.90;;;;;;5076099;28;20416;-59
2023/10/21 12:39:48;;;;;;;1.73;1.20;;;14.40;73.80;;;;;;5082469;28;20919;-59
2023/10/21 12:43:19;;;;;;;2.30;1.53;;;14.30;74.60;;;;;;5084778;28;20434;-59
2023/10/21 12:45:12;;;;;;;1.63;1.00;;;14.30;75.60;;;;;;5083565;28;20961;-59
2023/10/21 12:47:38;;;;;;;1.40;1.30;;;14.20;73.80;;;;;;5083536;28;20428;-59
2023/10/21 12:50:12;;;;;;;2.37;1.00;;;14.20;75.80;;;;;;5083208;28;20434;-58
2023/10/21 12:52:38;;;;;;;1.10;1.00;;;14.20;78.00;;;;;;5081747;28;20250;-59
2023/10/21 12:55:10;;;;;;;2.27;1.80;;;14.10;76.50;;;;;;5079543;28;20435;-58
2023/10/21 12:57:36;;;;;;;1.20;0.93;;;14.10;81.00;;;;;;5087853;28;20460;-59
2023/10/21 13:00:03;;;;;;;1.60;1.00;;;14.10;80.70;;;;;;5084248;28;20427;-59
2023/10/21 13:02:29;;;;;;;4.57;1.00;;;14.10;83.30;;;;;;5084478;28;20428;-59
2023/10/21 13:04:54;;;;;;;1.90;1.27;;;14.00;83.00;;;;;;5085842;28;20444;-59
2023/10/21 13:07:20;;;;;;;1.30;0.90;;;14.00;83.50;;;;;;5090228;28;20186;-58
2023/10/21 13:09:46;;;;;;;0.83;0.83;;;13.90;81.50;;;;;;5085215;28;20643;-59
2023/10/21 13:12:14;;;;;;;4.53;0.90;;;13.90;81.20;;;;;;5084420;28;20170;-59
2023/10/21 13:14:40;;;;;;;1.40;0.90;;;13.90;81.40;;;;;;5093181;28;20222;-59
2023/10/21 13:17:08;;;;;;;4.27;1.87;;;13.90;87.00;;;;;;5086627;28;20411;-59
2023/10/21 13:19:34;;;;;;;1.17;1.07;;;13.90;86.70;;;;;;5086073;28;20205;-61
2023/10/21 13:22:00;;;;;;;2.70;1.30;;;14.00;91.40;;;;;;5088896;28;20419;-60
2023/10/21 13:24:25;;;;;;;2.07;1.43;;;14.00;85.90;;;;;;5086629;28;20478;-60